SWA4296 KELP-KAUS
Flight info
| Callsign | SWA4296 |
|---|---|
| Flight time | 1h 6m |
| Altitude | 39000 |
| Route | NEVUE3 FST DILLO LAIKS4 |
| Aircraft | B738/M-SADE2E3GIJ4RWZ/LB1D1 |
Departure
| Time | 2026-04-28 12:12 |
|---|---|
| Airport | El Paso International Airport (KELP) |
Arrival
| Time | 2026-04-28 13:19 |
|---|---|
| Airport | Austin Bergstrom International Airport (KAUS) |
| Time | Latitude | Longitude | Altitude | Speed | Heading |
|---|---|---|---|---|---|
| 2026-04-28 11:16 | 31.80048 | -106.39464 | 3946 ft | 0 kts | 160° |
| 2026-04-28 12:02 | 31.80051 | -106.39465 | 3927 ft | 2 kts | 160° |
| 2026-04-28 12:02 | 31.80066 | -106.39472 | 3946 ft | 2 kts | 160° |
| 2026-04-28 12:02 | 31.80081 | -106.39478 | 3946 ft | 2 kts | 159° |
| 2026-04-28 12:02 | 31.80097 | -106.39485 | 3946 ft | 2 kts | 149° |
| 2026-04-28 12:03 | 31.80108 | -106.39498 | 3946 ft | 2 kts | 92° |
| 2026-04-28 12:03 | 31.80108 | -106.39508 | 3946 ft | 0 kts | 70° |
| 2026-04-28 12:04 | 31.80123 | -106.39468 | 3946 ft | 12 kts | 63° |
| 2026-04-28 12:04 | 31.80170 | -106.39383 | 3946 ft | 12 kts | 49° |
| 2026-04-28 12:04 | 31.80234 | -106.39321 | 3946 ft | 12 kts | 42° |
| 2026-04-28 12:04 | 31.80296 | -106.39254 | 3946 ft | 13 kts | 43° |
| 2026-04-28 12:05 | 31.80369 | -106.39176 | 3946 ft | 16 kts | 42° |
| 2026-04-28 12:05 | 31.80458 | -106.39079 | 3946 ft | 19 kts | 43° |
| 2026-04-28 12:05 | 31.80559 | -106.38972 | 3946 ft | 21 kts | 41° |
| 2026-04-28 12:05 | 31.80669 | -106.38846 | 3946 ft | 23 kts | 45° |
| 2026-04-28 12:06 | 31.80787 | -106.38715 | 3946 ft | 23 kts | 42° |
| 2026-04-28 12:06 | 31.80894 | -106.38579 | 3946 ft | 22 kts | 50° |
| 2026-04-28 12:06 | 31.80994 | -106.38441 | 3946 ft | 22 kts | 49° |
| 2026-04-28 12:06 | 31.81090 | -106.38307 | 3946 ft | 21 kts | 50° |
| 2026-04-28 12:07 | 31.81183 | -106.38176 | 3946 ft | 20 kts | 50° |
| 2026-04-28 12:07 | 31.81273 | -106.38050 | 3945 ft | 20 kts | 50° |
| 2026-04-28 12:07 | 31.81361 | -106.37928 | 3946 ft | 19 kts | 50° |
| 2026-04-28 12:07 | 31.81446 | -106.37809 | 3946 ft | 19 kts | 50° |
| 2026-04-28 12:08 | 31.81528 | -106.37695 | 3946 ft | 18 kts | 49° |
| 2026-04-28 12:08 | 31.81608 | -106.37585 | 3946 ft | 17 kts | 51° |
| 2026-04-28 12:08 | 31.81683 | -106.37477 | 3946 ft | 17 kts | 48° |
| 2026-04-28 12:08 | 31.81757 | -106.37375 | 3946 ft | 16 kts | 50° |
| 2026-04-28 12:09 | 31.81828 | -106.37276 | 3945 ft | 15 kts | 50° |
| 2026-04-28 12:09 | 31.81896 | -106.37183 | 3946 ft | 15 kts | 49° |
| 2026-04-28 12:09 | 31.81962 | -106.37092 | 3945 ft | 14 kts | 50° |
| 2026-04-28 12:09 | 31.82025 | -106.37006 | 3945 ft | 14 kts | 49° |
| 2026-04-28 12:10 | 31.82087 | -106.36924 | 3945 ft | 13 kts | 41° |
| 2026-04-28 12:10 | 31.82159 | -106.36930 | 3945 ft | 11 kts | 326° |
| 2026-04-28 12:10 | 31.82219 | -106.36982 | 3945 ft | 11 kts | 324° |
| 2026-04-28 12:10 | 31.82264 | -106.37034 | 3945 ft | 7 kts | 275° |
| 2026-04-28 12:11 | 31.82219 | -106.37110 | 3945 ft | 29 kts | 229° |
| 2026-04-28 12:11 | 31.81954 | -106.37479 | 3946 ft | 89 kts | 230° |
| 2026-04-28 12:11 | 31.81436 | -106.38203 | 3946 ft | 140 kts | 230° |
| 2026-04-28 12:11 | 31.80718 | -106.39218 | 3957 ft | 180 kts | 232° |
| 2026-04-28 12:12 | 31.79903 | -106.40394 | 4484 ft | 185 kts | 232° |
| 2026-04-28 12:12 | 31.78886 | -106.41392 | 4838 ft | 206 kts | 201° |
| 2026-04-28 12:12 | 31.77415 | -106.41685 | 5019 ft | 226 kts | 182° |
| 2026-04-28 12:12 | 31.75824 | -106.41299 | 5152 ft | 251 kts | 156° |
| 2026-04-28 12:13 | 31.74419 | -106.39981 | 5526 ft | 266 kts | 128° |
| 2026-04-28 12:13 | 31.73558 | -106.37975 | 5851 ft | 288 kts | 107° |
| 2026-04-28 12:13 | 31.73024 | -106.35644 | 6293 ft | 301 kts | 105° |
| 2026-04-28 12:13 | 31.72501 | -106.33227 | 6896 ft | 307 kts | 105° |
| 2026-04-28 12:14 | 31.71900 | -106.30811 | 7574 ft | 309 kts | 114° |
| 2026-04-28 12:14 | 31.70965 | -106.28535 | 8253 ft | 311 kts | 121° |
| 2026-04-28 12:14 | 31.69949 | -106.26270 | 8947 ft | 315 kts | 121° |
| 2026-04-28 12:14 | 31.68937 | -106.23963 | 9668 ft | 320 kts | 121° |
| 2026-04-28 12:15 | 31.67929 | -106.21612 | 10282 ft | 328 kts | 121° |
| 2026-04-28 12:15 | 31.66864 | -106.19186 | 10568 ft | 346 kts | 123° |
| 2026-04-28 12:15 | 31.65679 | -106.16684 | 11113 ft | 353 kts | 123° |
| 2026-04-28 12:15 | 31.64464 | -106.14162 | 11808 ft | 356 kts | 124° |
| 2026-04-28 12:16 | 31.63244 | -106.11623 | 12549 ft | 359 kts | 124° |
| 2026-04-28 12:16 | 31.62431 | -106.09923 | 13027 ft | 361 kts | 123° |
| 2026-04-28 12:16 | 31.60790 | -106.06475 | 13941 ft | 367 kts | 124° |
| 2026-04-28 12:16 | 31.59539 | -106.03844 | 14584 ft | 371 kts | 124° |
| 2026-04-28 12:17 | 31.58706 | -106.02091 | 15020 ft | 373 kts | 124° |
| 2026-04-28 12:17 | 31.57392 | -105.99462 | 15735 ft | 373 kts | 128° |
| 2026-04-28 12:17 | 31.55940 | -105.96928 | 16405 ft | 376 kts | 131° |
| 2026-04-28 12:17 | 31.54425 | -105.94393 | 17087 ft | 381 kts | 131° |
| 2026-04-28 12:18 | 31.52899 | -105.91837 | 17757 ft | 385 kts | 131° |
| 2026-04-28 12:18 | 31.51368 | -105.89235 | 18401 ft | 390 kts | 130° |
| 2026-04-28 12:18 | 31.49830 | -105.86594 | 19000 ft | 393 kts | 130° |
| 2026-04-28 12:18 | 31.48287 | -105.83934 | 19625 ft | 397 kts | 129° |
| 2026-04-28 12:19 | 31.47074 | -105.80971 | 20186 ft | 414 kts | 109° |
| 2026-04-28 12:19 | 31.46493 | -105.77644 | 20834 ft | 418 kts | 105° |
| 2026-04-28 12:19 | 31.45947 | -105.74281 | 21410 ft | 422 kts | 105° |
| 2026-04-28 12:19 | 31.45400 | -105.70920 | 21953 ft | 427 kts | 105° |
| 2026-04-28 12:20 | 31.44832 | -105.67490 | 22508 ft | 431 kts | 105° |
| 2026-04-28 12:20 | 31.44249 | -105.64024 | 23084 ft | 435 kts | 106° |
| 2026-04-28 12:20 | 31.43654 | -105.60538 | 23615 ft | 438 kts | 106° |
| 2026-04-28 12:20 | 31.43050 | -105.57028 | 24068 ft | 442 kts | 106° |
| 2026-04-28 12:21 | 31.42436 | -105.53483 | 24521 ft | 445 kts | 106° |
| 2026-04-28 12:21 | 31.41816 | -105.49918 | 24960 ft | 449 kts | 106° |
| 2026-04-28 12:21 | 31.41189 | -105.46323 | 25385 ft | 453 kts | 106° |
| 2026-04-28 12:21 | 31.40555 | -105.42695 | 25815 ft | 456 kts | 106° |
| 2026-04-28 12:22 | 31.39924 | -105.39088 | 26199 ft | 460 kts | 106° |
| 2026-04-28 12:22 | 31.39278 | -105.35404 | 26622 ft | 463 kts | 106° |
| 2026-04-28 12:22 | 31.38628 | -105.31695 | 27035 ft | 467 kts | 106° |
| 2026-04-28 12:22 | 31.37972 | -105.27967 | 27447 ft | 470 kts | 107° |
| 2026-04-28 12:23 | 31.37306 | -105.24186 | 27797 ft | 475 kts | 107° |
| 2026-04-28 12:23 | 31.36636 | -105.20389 | 28158 ft | 479 kts | 107° |
| 2026-04-28 12:23 | 31.35959 | -105.16557 | 28553 ft | 482 kts | 107° |
| 2026-04-28 12:23 | 31.35278 | -105.12705 | 28948 ft | 485 kts | 107° |
| 2026-04-28 12:24 | 31.34589 | -105.08818 | 29324 ft | 488 kts | 107° |
| 2026-04-28 12:24 | 31.33896 | -105.04918 | 29676 ft | 492 kts | 107° |
| 2026-04-28 12:24 | 31.33196 | -105.00987 | 30023 ft | 495 kts | 107° |
| 2026-04-28 12:24 | 31.32490 | -104.97030 | 30310 ft | 499 kts | 107° |
| 2026-04-28 12:25 | 31.31787 | -104.93094 | 30549 ft | 503 kts | 107° |
| 2026-04-28 12:25 | 31.31068 | -104.89077 | 30779 ft | 507 kts | 106° |
| 2026-04-28 12:25 | 31.30340 | -104.85021 | 31041 ft | 511 kts | 106° |
| 2026-04-28 12:25 | 31.29606 | -104.80934 | 31271 ft | 515 kts | 106° |
| 2026-04-28 12:26 | 31.28866 | -104.76825 | 31504 ft | 519 kts | 106° |
| 2026-04-28 12:26 | 31.28119 | -104.72681 | 31742 ft | 522 kts | 105° |
| 2026-04-28 12:26 | 31.27365 | -104.68507 | 31962 ft | 525 kts | 105° |
| 2026-04-28 12:26 | 31.26605 | -104.64305 | 32181 ft | 529 kts | 105° |
| 2026-04-28 12:27 | 31.25839 | -104.60085 | 32417 ft | 532 kts | 105° |
| 2026-04-28 12:27 | 31.25067 | -104.55833 | 32646 ft | 536 kts | 105° |
| 2026-04-28 12:27 | 31.24290 | -104.51568 | 32856 ft | 539 kts | 105° |
| 2026-04-28 12:27 | 31.23506 | -104.47274 | 33053 ft | 542 kts | 105° |
| 2026-04-28 12:28 | 31.22714 | -104.42943 | 33231 ft | 545 kts | 105° |
| 2026-04-28 12:28 | 31.21918 | -104.38599 | 33481 ft | 547 kts | 105° |
| 2026-04-28 12:28 | 31.21132 | -104.34313 | 33766 ft | 548 kts | 105° |
| 2026-04-28 12:28 | 31.20330 | -104.29952 | 34028 ft | 548 kts | 105° |
| 2026-04-28 12:29 | 31.18720 | -104.21222 | 34540 ft | 549 kts | 105° |
| 2026-04-28 12:29 | 31.17910 | -104.16848 | 34803 ft | 549 kts | 104° |
| 2026-04-28 12:29 | 31.17102 | -104.12491 | 35060 ft | 550 kts | 105° |
| 2026-04-28 12:30 | 31.16299 | -104.08172 | 35296 ft | 550 kts | 105° |
| 2026-04-28 12:30 | 31.15485 | -104.03798 | 35539 ft | 550 kts | 105° |
| 2026-04-28 12:30 | 31.14671 | -103.99437 | 35800 ft | 550 kts | 105° |
| 2026-04-28 12:30 | 31.13854 | -103.95064 | 36035 ft | 550 kts | 105° |
| 2026-04-28 12:31 | 31.13035 | -103.90692 | 36233 ft | 551 kts | 105° |
| 2026-04-28 12:31 | 31.12214 | -103.86317 | 36461 ft | 552 kts | 105° |
| 2026-04-28 12:31 | 31.11390 | -103.81938 | 36710 ft | 552 kts | 106° |
| 2026-04-28 12:31 | 31.10576 | -103.77616 | 36914 ft | 552 kts | 106° |
| 2026-04-28 12:32 | 31.09749 | -103.73234 | 37129 ft | 553 kts | 106° |
| 2026-04-28 12:32 | 31.08917 | -103.68841 | 37355 ft | 553 kts | 106° |
| 2026-04-28 12:32 | 31.08087 | -103.64456 | 37584 ft | 553 kts | 106° |
| 2026-04-28 12:32 | 31.07253 | -103.60068 | 37687 ft | 554 kts | 106° |
| 2026-04-28 12:33 | 31.06423 | -103.55701 | 38076 ft | 549 kts | 106° |
| 2026-04-28 12:33 | 31.05598 | -103.51366 | 38457 ft | 545 kts | 107° |
| 2026-04-28 12:33 | 31.04773 | -103.47041 | 38586 ft | 547 kts | 107° |
| 2026-04-28 12:34 | 31.03119 | -103.38419 | 38816 ft | 549 kts | 107° |
| 2026-04-28 12:34 | 31.01441 | -103.29698 | 38833 ft | 551 kts | 107° |
| 2026-04-28 12:35 | 30.99766 | -103.21008 | 38828 ft | 546 kts | 107° |
| 2026-04-28 12:35 | 30.98107 | -103.12444 | 38852 ft | 542 kts | 107° |
| 2026-04-28 12:36 | 30.96440 | -103.03873 | 38832 ft | 541 kts | 107° |
| 2026-04-28 12:36 | 30.94943 | -102.95274 | 38822 ft | 545 kts | 97° |
| 2026-04-28 12:37 | 30.94656 | -102.86435 | 38840 ft | 547 kts | 91° |
| 2026-04-28 12:37 | 30.94660 | -102.77591 | 38846 ft | 549 kts | 91° |
| 2026-04-28 12:38 | 30.94575 | -102.68647 | 38847 ft | 553 kts | 92° |
| 2026-04-28 12:38 | 30.94383 | -102.59658 | 38847 ft | 556 kts | 92° |
| 2026-04-28 12:39 | 30.94149 | -102.50663 | 38847 ft | 559 kts | 92° |
| 2026-04-28 12:39 | 30.93911 | -102.41599 | 38849 ft | 560 kts | 92° |
| 2026-04-28 12:40 | 30.93675 | -102.32508 | 38860 ft | 561 kts | 92° |
| 2026-04-28 12:40 | 30.93436 | -102.23427 | 38842 ft | 558 kts | 92° |
| 2026-04-28 12:41 | 30.93195 | -102.14475 | 38844 ft | 548 kts | 92° |
| 2026-04-28 12:41 | 30.92951 | -102.05680 | 38864 ft | 546 kts | 92° |
| 2026-04-28 12:42 | 30.92700 | -101.96852 | 38871 ft | 545 kts | 92° |
| 2026-04-28 12:42 | 30.92442 | -101.88016 | 38871 ft | 545 kts | 92° |
| 2026-04-28 12:43 | 30.92181 | -101.79187 | 38872 ft | 545 kts | 92° |
| 2026-04-28 12:43 | 30.91910 | -101.70345 | 38873 ft | 546 kts | 92° |
| 2026-04-28 12:44 | 30.91634 | -101.61546 | 38874 ft | 547 kts | 91° |
| 2026-04-28 12:44 | 30.91352 | -101.52683 | 38873 ft | 548 kts | 92° |
| 2026-04-28 12:45 | 30.91063 | -101.43813 | 38874 ft | 549 kts | 92° |
| 2026-04-28 12:45 | 30.90768 | -101.34918 | 38881 ft | 550 kts | 92° |
| 2026-04-28 12:46 | 30.90467 | -101.26057 | 38888 ft | 551 kts | 92° |
| 2026-04-28 12:46 | 30.90158 | -101.17121 | 38962 ft | 551 kts | 92° |
| 2026-04-28 12:47 | 30.89842 | -101.08192 | 38948 ft | 551 kts | 92° |
| 2026-04-28 12:47 | 30.89521 | -100.99266 | 38934 ft | 551 kts | 92° |
| 2026-04-28 12:48 | 30.89196 | -100.90394 | 38905 ft | 552 kts | 92° |
| 2026-04-28 12:48 | 30.88863 | -100.81478 | 38892 ft | 551 kts | 92° |
| 2026-04-28 12:49 | 30.88523 | -100.72559 | 38907 ft | 551 kts | 92° |
| 2026-04-28 12:49 | 30.88178 | -100.63640 | 38915 ft | 550 kts | 92° |
| 2026-04-28 12:49 | 30.88003 | -100.59172 | 38661 ft | 554 kts | 92° |
| 2026-04-28 12:50 | 30.87825 | -100.54678 | 38077 ft | 556 kts | 92° |
| 2026-04-28 12:50 | 30.87648 | -100.50245 | 37513 ft | 554 kts | 92° |
| 2026-04-28 12:50 | 30.87467 | -100.45754 | 36965 ft | 553 kts | 92° |
| 2026-04-28 12:50 | 30.87286 | -100.41288 | 36517 ft | 549 kts | 92° |
| 2026-04-28 12:51 | 30.87104 | -100.36865 | 36150 ft | 544 kts | 92° |
| 2026-04-28 12:51 | 30.86923 | -100.32487 | 35756 ft | 539 kts | 92° |
| 2026-04-28 12:51 | 30.86742 | -100.28140 | 35360 ft | 535 kts | 92° |
| 2026-04-28 12:51 | 30.86561 | -100.23830 | 34959 ft | 532 kts | 92° |
| 2026-04-28 12:52 | 30.86379 | -100.19543 | 34560 ft | 528 kts | 92° |
| 2026-04-28 12:52 | 30.86200 | -100.15336 | 34176 ft | 524 kts | 92° |
| 2026-04-28 12:52 | 30.86019 | -100.11114 | 33773 ft | 521 kts | 92° |
| 2026-04-28 12:52 | 30.85837 | -100.06913 | 33324 ft | 517 kts | 93° |
| 2026-04-28 12:53 | 30.85656 | -100.02751 | 32902 ft | 513 kts | 93° |
| 2026-04-28 12:53 | 30.85475 | -99.98627 | 32481 ft | 508 kts | 93° |
| 2026-04-28 12:53 | 30.85294 | -99.94539 | 32119 ft | 503 kts | 93° |
| 2026-04-28 12:53 | 30.85174 | -99.91851 | 31857 ft | 501 kts | 93° |
| 2026-04-28 12:54 | 30.84933 | -99.86462 | 31349 ft | 495 kts | 94° |
| 2026-04-28 12:54 | 30.84755 | -99.82522 | 30968 ft | 492 kts | 94° |
| 2026-04-28 12:54 | 30.84575 | -99.78563 | 30602 ft | 488 kts | 94° |
| 2026-04-28 12:54 | 30.84395 | -99.74633 | 30234 ft | 485 kts | 94° |
| 2026-04-28 12:55 | 30.84215 | -99.70727 | 29843 ft | 481 kts | 94° |
| 2026-04-28 12:55 | 30.84035 | -99.66842 | 29416 ft | 478 kts | 94° |
| 2026-04-28 12:55 | 30.83855 | -99.62998 | 28985 ft | 474 kts | 94° |
| 2026-04-28 12:55 | 30.83676 | -99.59175 | 28570 ft | 470 kts | 94° |
| 2026-04-28 12:56 | 30.83497 | -99.55389 | 28181 ft | 466 kts | 95° |
| 2026-04-28 12:56 | 30.83319 | -99.51644 | 27791 ft | 462 kts | 95° |
| 2026-04-28 12:56 | 30.83142 | -99.47964 | 27409 ft | 458 kts | 95° |
| 2026-04-28 12:56 | 30.82965 | -99.44268 | 27033 ft | 454 kts | 95° |
| 2026-04-28 12:57 | 30.82787 | -99.40610 | 26649 ft | 451 kts | 95° |
| 2026-04-28 12:57 | 30.82611 | -99.36982 | 26273 ft | 448 kts | 95° |
| 2026-04-28 12:57 | 30.82434 | -99.33380 | 25897 ft | 444 kts | 95° |
| 2026-04-28 12:57 | 30.82258 | -99.29796 | 25523 ft | 441 kts | 95° |
| 2026-04-28 12:58 | 30.82082 | -99.26247 | 25148 ft | 439 kts | 95° |
| 2026-04-28 12:58 | 30.81905 | -99.22710 | 24781 ft | 436 kts | 95° |
| 2026-04-28 12:58 | 30.81729 | -99.19198 | 24397 ft | 434 kts | 96° |
| 2026-04-28 12:58 | 30.81553 | -99.15701 | 24017 ft | 431 kts | 96° |
| 2026-04-28 12:59 | 30.81377 | -99.12228 | 23645 ft | 429 kts | 96° |
| 2026-04-28 12:59 | 30.81201 | -99.08771 | 23223 ft | 427 kts | 96° |
| 2026-04-28 12:59 | 30.81026 | -99.05362 | 22820 ft | 424 kts | 96° |
| 2026-04-28 12:59 | 30.80851 | -99.01952 | 22443 ft | 421 kts | 96° |
| 2026-04-28 13:00 | 30.80676 | -98.98560 | 22069 ft | 418 kts | 96° |
| 2026-04-28 13:00 | 30.80501 | -98.95198 | 21711 ft | 414 kts | 96° |
| 2026-04-28 13:00 | 30.80327 | -98.91861 | 21356 ft | 411 kts | 95° |
| 2026-04-28 13:00 | 30.80153 | -98.88549 | 20998 ft | 408 kts | 95° |
| 2026-04-28 13:01 | 30.79981 | -98.85282 | 20733 ft | 403 kts | 95° |
| 2026-04-28 13:01 | 30.79811 | -98.82065 | 20333 ft | 403 kts | 95° |
| 2026-04-28 13:01 | 30.79637 | -98.78820 | 19987 ft | 400 kts | 96° |
| 2026-04-28 13:01 | 30.79383 | -98.75592 | 19503 ft | 402 kts | 98° |
| 2026-04-28 13:02 | 30.79048 | -98.72409 | 19435 ft | 390 kts | 99° |
| 2026-04-28 13:02 | 30.78703 | -98.69317 | 19317 ft | 381 kts | 99° |
| 2026-04-28 13:02 | 30.78365 | -98.66274 | 18963 ft | 379 kts | 99° |
| 2026-04-28 13:02 | 30.78034 | -98.63242 | 18494 ft | 376 kts | 98° |
| 2026-04-28 13:03 | 30.77713 | -98.60236 | 18010 ft | 373 kts | 98° |
| 2026-04-28 13:03 | 30.77398 | -98.57259 | 17500 ft | 369 kts | 98° |
| 2026-04-28 13:03 | 30.77088 | -98.54308 | 16992 ft | 366 kts | 98° |
| 2026-04-28 13:03 | 30.76782 | -98.51386 | 16493 ft | 362 kts | 98° |
| 2026-04-28 13:04 | 30.76480 | -98.48519 | 15999 ft | 359 kts | 98° |
| 2026-04-28 13:04 | 30.76177 | -98.45653 | 15513 ft | 355 kts | 98° |
| 2026-04-28 13:04 | 30.75798 | -98.42835 | 15032 ft | 350 kts | 109° |
| 2026-04-28 13:04 | 30.74866 | -98.40264 | 14587 ft | 342 kts | 118° |
| 2026-04-28 13:05 | 30.73852 | -98.37779 | 14127 ft | 339 kts | 118° |
| 2026-04-28 13:05 | 30.72849 | -98.35315 | 13669 ft | 335 kts | 118° |
| 2026-04-28 13:05 | 30.71866 | -98.32873 | 13173 ft | 332 kts | 117° |
| 2026-04-28 13:05 | 30.70897 | -98.30448 | 12673 ft | 329 kts | 117° |
| 2026-04-28 13:06 | 30.70264 | -98.28855 | 12348 ft | 327 kts | 117° |
| 2026-04-28 13:06 | 30.69314 | -98.26460 | 11850 ft | 324 kts | 117° |
| 2026-04-28 13:06 | 30.68071 | -98.23316 | 11290 ft | 321 kts | 117° |
| 2026-04-28 13:06 | 30.67139 | -98.20960 | 10953 ft | 320 kts | 117° |
| 2026-04-28 13:07 | 30.66513 | -98.19377 | 10733 ft | 317 kts | 117° |
| 2026-04-28 13:07 | 30.65601 | -98.17074 | 10403 ft | 309 kts | 117° |
| 2026-04-28 13:07 | 30.64715 | -98.14836 | 10084 ft | 301 kts | 117° |
| 2026-04-28 13:07 | 30.63858 | -98.12676 | 9753 ft | 297 kts | 117° |
| 2026-04-28 13:08 | 30.62993 | -98.10498 | 9405 ft | 297 kts | 117° |
| 2026-04-28 13:08 | 30.62128 | -98.08321 | 9092 ft | 297 kts | 117° |
| 2026-04-28 13:08 | 30.61258 | -98.06134 | 8762 ft | 297 kts | 117° |
| 2026-04-28 13:08 | 30.60401 | -98.03976 | 8429 ft | 291 kts | 117° |
| 2026-04-28 13:09 | 30.59564 | -98.01869 | 8113 ft | 284 kts | 117° |
| 2026-04-28 13:09 | 30.58743 | -97.99804 | 7811 ft | 280 kts | 117° |
| 2026-04-28 13:09 | 30.57925 | -97.97751 | 7511 ft | 279 kts | 117° |
| 2026-04-28 13:09 | 30.57110 | -97.95706 | 7205 ft | 279 kts | 119° |
| 2026-04-28 13:10 | 30.56302 | -97.93689 | 6908 ft | 279 kts | 121° |
| 2026-04-28 13:10 | 30.55232 | -97.91878 | 6581 ft | 267 kts | 136° |
| 2026-04-28 13:10 | 30.54010 | -97.90299 | 6294 ft | 260 kts | 136° |
| 2026-04-28 13:10 | 30.52825 | -97.88732 | 5997 ft | 254 kts | 136° |
| 2026-04-28 13:11 | 30.51685 | -97.87197 | 5696 ft | 248 kts | 136° |
| 2026-04-28 13:11 | 30.50577 | -97.85694 | 5437 ft | 241 kts | 136° |
| 2026-04-28 13:11 | 30.49503 | -97.84233 | 5164 ft | 235 kts | 136° |
| 2026-04-28 13:11 | 30.48478 | -97.82834 | 5062 ft | 221 kts | 137° |
| 2026-04-28 13:12 | 30.47504 | -97.81506 | 5044 ft | 212 kts | 139° |
| 2026-04-28 13:12 | 30.46559 | -97.80220 | 5043 ft | 207 kts | 139° |
| 2026-04-28 13:12 | 30.45639 | -97.78969 | 5056 ft | 200 kts | 139° |
| 2026-04-28 13:12 | 30.44763 | -97.77777 | 5050 ft | 193 kts | 140° |
| 2026-04-28 13:13 | 30.43907 | -97.76611 | 5014 ft | 190 kts | 140° |
| 2026-04-28 13:13 | 30.43031 | -97.75435 | 5009 ft | 194 kts | 142° |
| 2026-04-28 13:13 | 30.41956 | -97.74525 | 4785 ft | 192 kts | 159° |
| 2026-04-28 13:13 | 30.40799 | -97.73759 | 4525 ft | 190 kts | 157° |
| 2026-04-28 13:14 | 30.39683 | -97.72985 | 4270 ft | 184 kts | 156° |
| 2026-04-28 13:14 | 30.38590 | -97.72223 | 4034 ft | 183 kts | 155° |
| 2026-04-28 13:14 | 30.37488 | -97.71455 | 3809 ft | 186 kts | 155° |
| 2026-04-28 13:14 | 30.36368 | -97.70674 | 3564 ft | 188 kts | 155° |
| 2026-04-28 13:15 | 30.35250 | -97.69891 | 3314 ft | 186 kts | 155° |
| 2026-04-28 13:15 | 30.34153 | -97.69122 | 3071 ft | 182 kts | 156° |
| 2026-04-28 13:15 | 30.33062 | -97.68398 | 2839 ft | 178 kts | 164° |
| 2026-04-28 13:15 | 30.31889 | -97.68238 | 2616 ft | 169 kts | 184° |
| 2026-04-28 13:16 | 30.30713 | -97.68209 | 2378 ft | 168 kts | 182° |
| 2026-04-28 13:16 | 30.29548 | -97.68171 | 2132 ft | 166 kts | 181° |
| 2026-04-28 13:16 | 30.28428 | -97.68136 | 1906 ft | 155 kts | 180° |
| 2026-04-28 13:16 | 30.27401 | -97.68099 | 1700 ft | 139 kts | 180° |
| 2026-04-28 13:17 | 30.26454 | -97.68072 | 1522 ft | 134 kts | 178° |
| 2026-04-28 13:17 | 30.25498 | -97.68045 | 1345 ft | 140 kts | 180° |
| 2026-04-28 13:17 | 30.24510 | -97.68021 | 1165 ft | 142 kts | 179° |
| 2026-04-28 13:17 | 30.23515 | -97.67994 | 1001 ft | 146 kts | 179° |
| 2026-04-28 13:18 | 30.22497 | -97.67968 | 759 ft | 143 kts | 175° |
| 2026-04-28 13:18 | 30.21540 | -97.67942 | 609 ft | 137 kts | 178° |
| 2026-04-28 13:18 | 30.20581 | -97.67915 | 515 ft | 136 kts | 178° |
| 2026-04-28 13:18 | 30.19667 | -97.67888 | 501 ft | 116 kts | 178° |
| 2026-04-28 13:19 | 30.19393 | -97.67760 | 503 ft | 20 kts | 88° |
| 2026-04-28 13:19 | 30.19397 | -97.67604 | 504 ft | 15 kts | 91° |
| 2026-04-28 13:19 | 30.19399 | -97.67483 | 505 ft | 15 kts | 85° |
| 2026-04-28 13:19 | 30.19402 | -97.67367 | 503 ft | 14 kts | 78° |
| 2026-04-28 13:20 | 30.19487 | -97.67322 | 501 ft | 14 kts | 359° |
| 2026-04-28 13:20 | 30.19586 | -97.67324 | 501 ft | 15 kts | 359° |
| 2026-04-28 13:20 | 30.19701 | -97.67326 | 500 ft | 19 kts | 359° |
| 2026-04-28 13:20 | 30.19844 | -97.67331 | 500 ft | 19 kts | 1° |
| 2026-04-28 13:21 | 30.19896 | -97.67222 | 500 ft | 17 kts | 89° |
| 2026-04-28 13:21 | 30.19899 | -97.67085 | 500 ft | 17 kts | 89° |
| 2026-04-28 13:21 | 30.19904 | -97.66954 | 500 ft | 16 kts | 97° |
| 2026-04-28 13:21 | 30.19903 | -97.66828 | 500 ft | 15 kts | 89° |
| 2026-04-28 13:22 | 30.19917 | -97.66710 | 500 ft | 15 kts | 52° |
| 2026-04-28 13:22 | 30.20010 | -97.66689 | 500 ft | 13 kts | 358° |
| 2026-04-28 13:22 | 30.20100 | -97.66677 | 500 ft | 13 kts | 359° |
| 2026-04-28 13:22 | 30.20127 | -97.66678 | 500 ft | 0 kts | 359° |